KIGQ

Lansing Municipal Airport

Chicago, Illinois, USA
METAR KIGQ 181515Z AUTO 23010KT 10SM CLR M07/M11 A3018 RMK AO2 T10721108
Observed Flight Rules
Jan-18 @ 15:15 UTC (29 minutes ago) Visual Flight Rules
Wind Visibility Clouds
230° at 10 knots 10 miles
  • Clear skies
Temperatures Readings
Current -7°C / 19°F
Dewpoint -11°C / 12°F
Humidity 73%
Altimeter 30.18" Hg
Pressure 1022 hPa
Elevation 188
METAR KIGQ 181515Z AUTO 23010KT 10SM CLR M07/M11 A3018 RMK AO2 T10721108
Observed Flight Rules
Jan-18 @ 15:15 UTC
(29 minutes ago)
VFR
Wind Visibility
230° at 10 knots 10 miles
Clouds
  • Clear skies
Temperature Dewpoint
-7°C / 19°F -11°C / 12°F
Humidity Altimeter Pressure
73% 30.18" Hg 1022 hPa